createdAt,value
2019-01-28T00:00:43.037Z,95937.00
2019-01-28T00:03:09.794Z,95938.08
2019-01-28T00:05:36.404Z,95941.25
2019-01-28T00:08:02.993Z,95949.12
2019-01-28T00:10:29.527Z,95952.05
2019-01-28T00:12:56.140Z,95954.19
2019-01-28T00:15:23.792Z,95952.00
2019-01-28T00:17:50.417Z,95960.72
2019-01-28T00:20:17.014Z,95965.05
2019-01-28T00:22:43.620Z,95965.05
2019-01-28T00:25:10.142Z,95967.70
2019-01-28T00:27:36.884Z,95973.77
2019-01-28T00:30:05.863Z,95969.52
2019-01-28T00:32:32.681Z,95970.86
2019-01-28T00:34:59.285Z,95977.94
2019-01-28T00:37:27.903Z,95979.30
2019-01-28T00:39:54.594Z,95977.16
2019-01-28T00:42:21.118Z,95983.68
2019-01-28T00:44:48.069Z,95995.78
2019-01-28T00:47:14.709Z,95993.70
2019-01-28T00:49:41.634Z,95995.45
2019-01-28T00:52:08.140Z,96001.47
2019-01-28T00:54:34.744Z,95999.22
2019-01-28T00:57:02.040Z,96005.91
2019-01-28T00:59:28.515Z,96002.33
2019-01-28T01:01:54.978Z,96004.02
2019-01-28T01:04:21.760Z,96006.88
2019-01-28T01:06:48.213Z,96019.27
2019-01-28T01:09:15.051Z,96020.11
2019-01-28T01:11:41.587Z,96026.88
2019-01-28T01:14:08.137Z,96028.05
2019-01-28T01:16:34.591Z,96034.52
2019-01-28T01:19:01.485Z,96041.45
2019-01-28T01:21:28.017Z,96049.17
2019-01-28T01:23:54.551Z,96053.00
2019-01-28T01:26:21.405Z,96052.55
2019-01-28T01:28:47.862Z,96052.61
2019-01-28T01:31:14.763Z,96052.55
2019-01-28T01:33:41.236Z,96054.18
2019-01-28T01:36:07.869Z,96061.55
2019-01-28T01:38:34.334Z,96058.56
2019-01-28T01:41:00.845Z,96059.03
2019-01-28T01:43:27.357Z,96063.81
2019-01-28T01:45:54.138Z,96059.42
2019-01-28T01:48:20.632Z,96060.77
2019-01-28T01:50:47.146Z,96054.67
2019-01-28T01:53:13.637Z,96061.55
2019-01-28T01:55:40.095Z,96050.73
2019-01-28T01:58:06.609Z,96043.36
2019-01-28T02:00:33.418Z,96045.28
2019-01-28T02:03:00.256Z,96045.45
2019-01-28T02:05:26.785Z,96051.09
2019-01-28T02:07:53.632Z,96050.56
2019-01-28T02:10:20.265Z,96050.12
2019-01-28T02:12:46.876Z,96057.11
2019-01-28T02:15:17.905Z,96058.86
2019-01-28T02:17:44.785Z,96065.43
2019-01-28T02:20:11.758Z,96066.80
2019-01-28T02:22:38.230Z,96070.50
2019-01-28T02:25:05.507Z,96083.55
2019-01-28T02:27:31.999Z,96079.52
2019-01-28T02:29:58.512Z,96086.05
2019-01-28T02:32:25.029Z,96086.84
2019-01-28T02:34:51.675Z,96077.33
2019-01-28T02:37:18.586Z,96080.92
2019-01-28T02:39:45.321Z,96073.77
2019-01-28T02:42:11.813Z,96076.61
2019-01-28T02:44:39.328Z,96072.98
2019-01-28T02:47:05.872Z,96076.95
2019-01-28T02:49:32.920Z,96071.05
2019-01-28T02:51:59.412Z,96073.34
2019-01-28T02:54:26.215Z,96080.84
2019-01-28T02:56:52.802Z,96069.99
2019-01-28T02:59:19.245Z,96071.58
2019-01-28T03:01:45.749Z,96072.05
2019-01-28T03:04:12.663Z,96059.84
2019-01-28T03:06:39.366Z,96056.02
2019-01-28T03:09:07.148Z,96056.52
2019-01-28T03:11:33.616Z,96061.59
2019-01-28T03:14:00.138Z,96059.98
2019-01-28T03:16:26.622Z,96065.67
2019-01-28T03:18:53.208Z,96062.73
2019-01-28T03:21:19.678Z,96055.81
2019-01-28T03:23:46.438Z,96057.46
2019-01-28T03:26:12.930Z,96060.63
2019-01-28T03:28:39.419Z,96067.30
2019-01-28T03:31:05.941Z,96054.95
2019-01-28T03:33:32.640Z,96059.98
2019-01-28T03:35:59.138Z,96062.38
2019-01-28T03:38:26.046Z,96067.95
2019-01-28T03:40:53.011Z,96069.67
2019-01-28T03:43:19.888Z,96070.53
2019-01-28T03:45:46.566Z,96068.53
2019-01-28T03:48:13.084Z,96071.83
2019-01-28T03:50:39.585Z,96063.70
2019-01-28T03:53:06.453Z,96069.63
2019-01-28T03:55:33.271Z,96067.73
2019-01-28T03:57:59.722Z,96071.62
2019-01-28T04:00:26.333Z,96065.06
2019-01-28T04:02:52.966Z,96066.00
2019-01-28T04:05:19.725Z,96073.50
2019-01-28T04:07:46.707Z,96073.20
2019-01-28T04:10:16.032Z,96069.07
2019-01-28T04:12:42.545Z,96062.61
2019-01-28T04:15:10.381Z,96059.14
2019-01-28T04:17:36.965Z,96066.22
2019-01-28T04:20:05.368Z,96053.63
2019-01-28T04:22:31.886Z,96063.28
2019-01-28T04:24:58.755Z,96051.08
2019-01-28T04:27:25.274Z,96037.70
2019-01-28T04:29:51.919Z,96045.50
2019-01-28T04:32:18.424Z,96034.81
2019-01-28T04:34:45.236Z,96024.08
2019-01-28T04:37:11.779Z,96028.10
2019-01-28T04:39:38.307Z,96054.85
2019-01-28T04:42:04.899Z,96049.83
2019-01-28T04:44:31.702Z,96049.53
2019-01-28T04:46:58.446Z,96045.61
2019-01-28T04:49:25.033Z,96043.16
2019-01-28T04:51:51.822Z,96044.45
2019-01-28T04:54:18.341Z,96049.89
2019-01-28T04:56:50.286Z,96038.75
2019-01-28T04:59:16.755Z,96038.59
2019-01-28T05:01:43.384Z,96044.68
2019-01-28T05:04:09.861Z,96042.58
2019-01-28T05:06:36.405Z,96042.19
2019-01-28T05:09:07.087Z,96042.94
2019-01-28T05:11:33.847Z,96045.11
2019-01-28T05:14:00.576Z,96053.33
2019-01-28T05:16:27.109Z,96046.16
2019-01-28T05:18:53.634Z,96053.83
2019-01-28T05:21:20.109Z,96058.75
2019-01-28T05:23:46.617Z,96050.73
2019-01-28T05:26:13.099Z,96055.84
2019-01-28T05:28:39.741Z,96050.01
2019-01-28T05:31:06.198Z,96055.94
2019-01-28T05:33:33.041Z,96044.39
2019-01-28T05:35:59.567Z,96038.77
2019-01-28T05:38:26.050Z,96035.38
2019-01-28T05:40:53.437Z,96028.92
2019-01-28T05:43:19.932Z,96029.30
2019-01-28T05:45:46.440Z,96030.92
2019-01-28T05:48:13.013Z,96029.79
2019-01-28T05:50:39.475Z,96026.05
2019-01-28T05:53:06.053Z,96024.41
2019-01-28T05:55:32.542Z,96014.02
2019-01-28T05:57:59.069Z,96022.52
2019-01-28T06:00:32.564Z,96024.22
2019-01-28T06:02:59.100Z,96021.16
2019-01-28T06:05:25.632Z,96027.80
2019-01-28T06:07:52.466Z,96028.84
2019-01-28T06:10:19.425Z,96027.86
2019-01-28T06:12:45.906Z,96033.22
2019-01-28T06:15:13.889Z,96032.28
2019-01-28T06:17:41.581Z,96032.57
2019-01-28T06:20:15.139Z,96027.94
2019-01-28T06:22:41.629Z,96024.00
2019-01-28T06:25:08.472Z,96026.73
2019-01-28T06:27:34.982Z,96019.72
2019-01-28T06:30:01.581Z,96023.56
2019-01-28T06:32:28.068Z,96020.57
2019-01-28T06:34:54.831Z,96021.91
2019-01-28T06:37:21.466Z,96017.98
2019-01-28T06:39:48.458Z,96024.05
2019-01-28T06:42:15.052Z,96025.80
2019-01-28T06:44:44.922Z,96031.42
2019-01-28T06:47:11.526Z,96034.74
2019-01-28T06:49:38.228Z,96029.06
2019-01-28T06:52:04.967Z,96023.45
2019-01-28T06:54:31.471Z,96029.58
2019-01-28T06:56:57.970Z,96026.64
2019-01-28T06:59:24.484Z,96023.66
2019-01-28T07:01:56.028Z,96019.77
2019-01-28T07:04:30.808Z,96023.49
2019-01-28T07:06:57.406Z,96024.79
2019-01-28T07:09:23.944Z,96026.55
2019-01-28T07:29:20.934Z,96022.31
2019-01-28T07:31:47.728Z,96031.72
2019-01-28T07:34:14.209Z,96024.45
2019-01-28T07:36:43.244Z,96024.16
2019-01-28T07:39:09.872Z,96015.11
2019-01-28T07:41:36.691Z,96010.83
2019-01-28T07:44:03.872Z,96015.55
2019-01-28T07:46:33.137Z,96018.88
2019-01-28T07:49:00.432Z,96020.67
2019-01-28T07:51:35.065Z,96026.55
2019-01-28T07:54:04.560Z,96024.29
2019-01-28T07:56:31.051Z,96016.83
2019-01-28T07:58:57.509Z,96014.13
2019-01-28T08:01:23.994Z,96023.73
2019-01-28T08:03:50.449Z,96024.59
2019-01-28T08:06:16.928Z,96020.27
2019-01-28T08:08:43.435Z,96022.20
2019-01-28T08:11:09.908Z,96019.72
2019-01-28T08:13:36.524Z,96022.41
2019-01-28T08:16:03.149Z,96022.65
2019-01-28T08:18:29.870Z,96014.83
2019-01-28T08:20:56.370Z,96003.94
2019-01-28T08:23:23.871Z,96003.02
2019-01-28T08:25:50.355Z,96003.44
2019-01-28T08:28:17.113Z,95992.80
2019-01-28T08:30:43.827Z,95984.08
2019-01-28T08:33:10.386Z,95987.68
2019-01-28T08:35:37.568Z,95988.58
2019-01-28T08:38:04.183Z,95985.41
2019-01-28T08:40:30.801Z,95975.90
2019-01-28T08:42:57.664Z,95981.77
2019-01-28T08:45:24.263Z,95975.23
2019-01-28T08:47:53.518Z,95985.08
2019-01-28T08:50:20.982Z,95972.07
2019-01-28T08:52:47.739Z,95968.91
2019-01-28T08:55:16.182Z,95988.96
2019-01-28T08:57:42.732Z,95973.60
2019-01-28T09:00:15.480Z,95978.83
2019-01-28T09:02:42.054Z,95971.14
2019-01-28T09:05:09.118Z,95972.21
2019-01-28T09:07:35.711Z,95971.70
2019-01-28T09:10:02.651Z,95975.20
2019-01-28T09:12:29.505Z,95969.91
2019-01-28T09:14:55.958Z,95964.72
2019-01-28T09:17:22.531Z,95973.91
2019-01-28T09:19:49.145Z,95975.59
2019-01-28T09:22:15.653Z,95973.28
2019-01-28T09:24:42.170Z,95968.72
2019-01-28T09:27:08.806Z,95967.45
2019-01-28T09:29:35.439Z,95967.11
2019-01-28T09:32:02.666Z,95962.94
2019-01-28T09:34:29.381Z,95957.77
2019-01-28T09:36:56.964Z,95959.13
2019-01-28T09:39:23.510Z,95954.56
2019-01-28T09:41:50.001Z,95960.33
2019-01-28T09:44:16.474Z,95966.30
2019-01-28T09:46:43.676Z,95967.20
2019-01-28T09:49:10.167Z,95957.23
2019-01-28T09:51:36.753Z,95965.83
2019-01-28T09:54:03.573Z,95963.18
2019-01-28T09:56:30.057Z,95968.20
2019-01-28T09:58:56.539Z,95955.75
2019-01-28T10:01:23.056Z,95960.42
2019-01-28T10:03:49.987Z,95957.83
2019-01-28T10:06:16.542Z,95959.95
2019-01-28T10:08:43.074Z,95959.52
2019-01-28T10:11:09.618Z,95966.38
2019-01-28T10:13:38.233Z,95965.42
2019-01-28T10:16:04.991Z,95960.17
2019-01-28T10:18:31.702Z,95967.31
2019-01-28T10:20:58.288Z,95964.10
2019-01-28T10:23:26.174Z,95957.73
2019-01-28T10:25:57.636Z,95964.04
2019-01-28T10:28:21.289Z,95958.00
2019-01-28T10:30:47.993Z,95965.39
2019-01-28T10:33:14.584Z,95968.69
2019-01-28T10:35:42.801Z,95961.19
2019-01-28T10:38:09.426Z,95967.88
2019-01-28T10:40:37.852Z,95969.56
2019-01-28T10:43:05.573Z,95965.86
2019-01-28T10:45:32.067Z,95967.67
2019-01-28T10:48:00.619Z,95966.38
2019-01-28T10:50:27.363Z,95971.28
2019-01-28T10:52:53.942Z,95958.79
2019-01-28T10:55:20.834Z,95965.67
2019-01-28T10:57:47.384Z,95957.50
2019-01-28T11:00:22.523Z,95956.00
2019-01-28T11:02:49.389Z,95960.22
2019-01-28T11:05:15.980Z,95950.21
2019-01-28T11:07:42.565Z,95951.11
2019-01-28T11:10:10.495Z,95938.53
2019-01-28T11:12:37.350Z,95944.56
2019-01-28T11:15:06.053Z,95940.31
2019-01-28T11:17:32.623Z,95946.41
2019-01-28T11:19:59.245Z,95945.75
2019-01-28T11:22:25.865Z,95945.23
2019-01-28T11:24:52.461Z,95932.46
2019-01-28T11:27:21.430Z,95930.83
2019-01-28T11:29:48.297Z,95938.16
2019-01-28T11:32:15.007Z,95933.81
2019-01-28T11:34:42.132Z,95931.87
2019-01-28T11:37:08.868Z,95919.81
2019-01-28T11:39:35.765Z,95929.08
2019-01-28T11:42:02.557Z,95932.58
2019-01-28T11:44:33.351Z,95930.45
2019-01-28T11:47:00.338Z,95927.05
2019-01-28T11:49:26.980Z,95929.31
2019-01-28T11:51:53.974Z,95925.59
2019-01-28T11:54:20.487Z,95922.36
2019-01-28T11:56:47.081Z,95928.39
2019-01-28T11:59:15.105Z,95915.72
2019-01-28T12:01:41.828Z,95905.66
2019-01-28T12:04:19.113Z,95923.90
2019-01-28T12:06:45.838Z,95924.13
2019-01-28T12:09:12.475Z,95924.13
2019-01-28T12:11:39.018Z,95918.98
2019-01-28T12:14:05.659Z,95924.96
2019-01-28T12:16:32.527Z,95922.41
2019-01-28T12:18:59.028Z,95919.07
2019-01-28T12:21:25.974Z,95930.27
2019-01-28T12:23:53.534Z,95938.87
2019-01-28T12:26:20.527Z,95932.58
2019-01-28T12:28:47.042Z,95934.04
2019-01-28T12:31:13.882Z,95932.00
2019-01-28T12:33:40.399Z,95937.74
2019-01-28T12:36:06.968Z,95933.45
2019-01-28T12:38:33.854Z,95939.56
2019-01-28T12:41:00.723Z,95929.11
2019-01-28T12:43:27.410Z,95930.14
2019-01-28T12:45:53.919Z,95932.97
2019-01-28T12:48:20.607Z,95940.95
2019-01-28T12:50:47.234Z,95941.38
2019-01-28T12:53:13.899Z,95931.89
2019-01-28T12:55:40.385Z,95938.51
2019-01-28T12:58:07.046Z,95927.41
2019-01-28T13:00:41.707Z,95932.63
2019-01-28T13:03:09.661Z,95931.63
2019-01-28T13:05:36.494Z,95932.02
2019-01-28T13:08:03.393Z,95945.58
2019-01-28T13:10:30.033Z,95949.11
2019-01-28T13:12:56.551Z,95945.89
2019-01-28T13:15:25.766Z,95955.16
2019-01-28T13:17:53.101Z,95956.46
2019-01-28T13:20:19.767Z,95953.30
2019-01-28T13:22:46.787Z,95955.11
2019-01-28T13:25:14.350Z,95957.31
2019-01-28T13:27:41.095Z,95961.14
2019-01-28T13:30:11.776Z,95967.18
2019-01-28T13:32:38.447Z,95959.18
2019-01-28T13:35:05.481Z,95963.34
2019-01-28T13:37:35.681Z,95965.94
2019-01-28T13:40:04.983Z,95963.39
2019-01-28T13:42:31.537Z,95971.55
2019-01-28T13:44:59.868Z,95962.59
2019-01-28T13:47:26.722Z,95969.23
2019-01-28T13:49:54.357Z,95966.88
2019-01-28T13:52:20.944Z,95971.65
2019-01-28T13:54:47.757Z,95974.92
2019-01-28T13:57:14.392Z,95981.31
2019-01-28T13:59:41.270Z,95975.72
2019-01-28T14:02:08.359Z,95977.70
2019-01-28T14:04:36.180Z,95983.84
2019-01-28T14:07:03.216Z,95987.61
2019-01-28T14:09:30.096Z,95995.28
2019-01-28T14:11:56.605Z,95989.42
2019-01-28T14:14:23.497Z,95997.36
2019-01-28T14:16:50.124Z,96005.33
2019-01-28T14:19:16.670Z,96002.24
2019-01-28T14:21:44.353Z,96011.05
2019-01-28T14:24:10.951Z,96008.54
2019-01-28T14:26:37.505Z,96008.34
2019-01-28T14:29:04.231Z,96012.87
2019-01-28T14:31:31.353Z,96017.75
2019-01-28T14:33:58.070Z,96017.07
2019-01-28T14:36:24.649Z,96022.34
2019-01-28T14:38:51.646Z,96022.84
2019-01-28T14:41:18.139Z,96024.26
2019-01-28T14:43:44.644Z,96025.69
2019-01-28T14:46:11.121Z,96026.34
2019-01-28T14:48:37.984Z,96027.53
2019-01-28T14:51:04.475Z,96040.30
2019-01-28T14:53:33.276Z,96033.87
2019-01-28T14:55:59.802Z,96040.98
2019-01-28T14:58:26.643Z,96040.03
2019-01-28T15:00:54.939Z,96048.44
2019-01-28T15:03:21.669Z,96044.66
2019-01-28T15:05:48.292Z,96046.63
2019-01-28T15:08:14.887Z,96052.27
2019-01-28T15:10:41.509Z,96044.48
2019-01-28T15:13:10.103Z,96050.30
2019-01-28T15:15:37.466Z,96054.25
2019-01-28T15:18:11.478Z,96059.53
2019-01-28T15:20:38.570Z,96064.03
2019-01-28T15:23:05.279Z,96067.13
2019-01-28T15:25:31.760Z,96074.56
2019-01-28T15:27:58.567Z,96078.36
2019-01-28T15:30:26.536Z,96075.94
2019-01-28T15:32:54.080Z,96081.22
2019-01-28T15:35:20.709Z,96079.92
2019-01-28T15:37:48.238Z,96079.02
2019-01-28T15:40:23.017Z,96084.60
2019-01-28T15:42:52.932Z,96085.83
2019-01-28T15:45:24.443Z,96093.16
2019-01-28T15:47:51.141Z,96091.42
2019-01-28T15:50:20.240Z,96096.60
2019-01-28T15:52:47.019Z,96102.67
2019-01-28T15:55:17.344Z,96109.03
2019-01-28T15:57:44.469Z,96105.95
2019-01-28T16:00:14.946Z,96121.42
2019-01-28T16:02:43.706Z,96123.12
2019-01-28T16:05:13.454Z,96121.37
2019-01-28T16:07:39.964Z,96127.30
2019-01-28T16:10:09.555Z,96133.28
2019-01-28T16:12:36.091Z,96143.24
2019-01-28T16:15:04.327Z,96148.92
2019-01-28T16:17:31.119Z,96155.84
2019-01-28T16:19:58.279Z,96155.39
2019-01-28T16:22:24.856Z,96160.57
2019-01-28T16:24:51.553Z,96166.31
2019-01-28T16:27:18.274Z,96173.61
2019-01-28T16:29:44.809Z,96173.22
2019-01-28T16:32:11.336Z,96187.86
2019-01-28T16:34:37.897Z,96181.69
2019-01-28T16:37:04.746Z,96188.56
2019-01-28T16:39:31.299Z,96183.78
2019-01-28T16:41:58.466Z,96194.48
2019-01-28T16:44:25.216Z,96197.97
2019-01-28T16:46:51.692Z,96202.16
2019-01-28T16:49:18.395Z,96209.47
2019-01-28T16:51:45.492Z,96212.52
2019-01-28T16:54:13.199Z,96209.53
2019-01-28T16:56:40.243Z,96212.52
2019-01-28T16:59:07.097Z,96217.70
2019-01-28T17:01:33.641Z,96221.63
2019-01-28T17:04:00.769Z,96224.11
2019-01-28T17:06:27.331Z,96233.09
2019-01-28T17:08:53.957Z,96235.73
2019-01-28T17:11:20.506Z,96240.86
2019-01-28T17:13:47.924Z,96239.26
2019-01-28T17:16:14.593Z,96249.62
2019-01-28T17:18:41.144Z,96244.00
2019-01-28T17:21:07.740Z,96250.52
2019-01-28T17:23:34.289Z,96257.54
2019-01-28T17:26:00.837Z,96262.38
2019-01-28T17:28:29.701Z,96269.39
2019-01-28T17:30:58.329Z,96269.09
2019-01-28T17:33:46.449Z,96277.26
2019-01-28T17:36:13.519Z,96284.31
2019-01-28T17:38:42.566Z,96289.00
2019-01-28T17:41:10.432Z,96292.08
2019-01-28T17:44:06.627Z,96292.44
2019-01-28T17:46:33.216Z,96298.95
2019-01-28T17:49:03.385Z,96299.40
2019-01-28T17:51:39.385Z,96305.02
2019-01-28T17:54:12.051Z,96315.78
2019-01-28T17:57:05.395Z,96312.80
2019-01-28T17:59:40.963Z,96320.11
2019-01-28T18:02:10.901Z,96328.33
2019-01-28T18:04:49.615Z,96331.28
2019-01-28T18:07:34.808Z,96334.72
2019-01-28T18:10:04.053Z,96341.68
2019-01-28T18:12:43.017Z,96344.75
2019-01-28T18:15:12.849Z,96355.44
2019-01-28T18:17:40.794Z,96353.73
2019-01-28T18:20:09.299Z,96359.23
2019-01-28T18:22:43.481Z,96367.44
2019-01-28T18:25:19.419Z,96370.48
2019-01-28T18:27:46.094Z,96370.03
2019-01-28T18:30:40.718Z,96383.43
2019-01-28T18:33:07.231Z,96372.27
2019-01-28T18:35:35.016Z,96385.48
2019-01-28T18:38:02.474Z,96384.14
2019-01-28T18:40:29.092Z,96388.03
2019-01-28T18:42:56.804Z,96394.95
2019-01-28T18:45:23.853Z,96404.50
2019-01-28T18:47:50.376Z,96410.41
2019-01-28T18:50:17.261Z,96413.97
2019-01-28T18:52:44.536Z,96421.38
2019-01-28T18:55:11.301Z,96420.98
2019-01-28T18:57:37.832Z,96422.68
2019-01-28T19:00:08.987Z,96434.82
2019-01-28T19:02:35.623Z,96435.70
2019-01-28T19:05:03.699Z,96438.30
2019-01-28T19:07:41.343Z,96446.92
2019-01-28T19:10:31.011Z,96449.02
2019-01-28T19:13:08.052Z,96450.31
2019-01-28T19:16:03.490Z,96457.19
2019-01-28T19:18:35.129Z,96461.52
2019-01-28T19:21:21.872Z,96465.84
2019-01-28T19:23:48.367Z,96462.73
2019-01-28T19:26:14.865Z,96474.48
2019-01-28T19:28:45.725Z,96481.03
2019-01-28T19:31:16.414Z,96485.67
2019-01-28T19:33:42.952Z,96495.27
2019-01-28T19:36:15.116Z,96496.64
2019-01-28T19:38:47.519Z,96504.41
2019-01-28T19:41:26.483Z,96514.29
2019-01-28T19:44:14.854Z,96518.66
2019-01-28T19:46:41.597Z,96525.05
2019-01-28T19:49:08.612Z,96534.97
2019-01-28T19:51:35.419Z,96546.17
2019-01-28T19:54:02.300Z,96542.33
2019-01-28T19:56:32.052Z,96545.48
2019-01-28T19:59:10.382Z,96557.20
2019-01-28T20:01:46.293Z,96564.61
2019-01-28T20:04:15.634Z,96563.79
2019-01-28T20:06:46.411Z,96572.96
2019-01-28T20:09:16.069Z,96579.41
2019-01-28T20:11:42.607Z,96587.27
2019-01-28T20:14:12.215Z,96592.86
2019-01-28T20:16:40.848Z,96593.30
2019-01-28T20:19:11.152Z,96605.39
2019-01-28T20:21:41.456Z,96603.39
2019-01-28T20:24:10.153Z,96613.73
2019-01-28T20:26:36.696Z,96614.55
2019-01-28T20:29:03.864Z,96628.42
2019-01-28T20:31:30.715Z,96632.37
2019-01-28T20:34:06.436Z,96639.34
2019-01-28T20:36:40.292Z,96638.09
2019-01-28T20:39:39.063Z,96658.72
2019-01-28T20:42:15.778Z,96658.38
2019-01-28T20:44:48.677Z,96662.29
2019-01-28T20:47:15.186Z,96673.59
2019-01-28T20:49:42.085Z,96673.68
2019-01-28T20:52:08.768Z,96681.85
2019-01-28T20:54:35.621Z,96693.09
2019-01-28T20:57:03.471Z,96702.61
2019-01-28T20:59:30.413Z,96700.47
2019-01-28T21:01:57.034Z,96702.32
2019-01-28T21:04:23.498Z,96708.76
2019-01-28T21:06:50.135Z,96715.69
2019-01-28T21:09:18.713Z,96729.45
2019-01-28T21:11:45.624Z,96725.66
2019-01-28T21:14:12.438Z,96728.73
2019-01-28T21:16:38.982Z,96735.20
2019-01-28T21:19:05.587Z,96736.19
2019-01-28T21:21:32.888Z,96739.27
2019-01-28T21:24:01.122Z,96744.47
2019-01-28T21:26:27.720Z,96747.91
2019-01-28T21:28:56.399Z,96760.45
2019-01-28T21:31:25.013Z,96761.74
2019-01-28T21:33:51.842Z,96763.47
2019-01-28T21:36:27.687Z,96770.80
2019-01-28T21:38:54.597Z,96776.81
2019-01-28T21:41:21.314Z,96779.02
2019-01-28T21:43:47.935Z,96776.40
2019-01-28T21:46:14.740Z,96791.06
2019-01-28T21:48:41.267Z,96792.77
2019-01-28T21:51:07.889Z,96806.99
2019-01-28T21:53:34.487Z,96807.05
2019-01-28T21:56:01.824Z,96807.06
2019-01-28T21:58:28.387Z,96810.98
2019-01-28T22:00:54.980Z,96808.41
2019-01-28T22:03:22.032Z,96815.28
2019-01-28T22:05:48.603Z,96816.14
2019-01-28T22:08:15.058Z,96812.75
2019-01-28T22:10:41.601Z,96829.11
2019-01-28T22:13:08.165Z,96824.75
2019-01-28T22:15:35.101Z,96832.50
2019-01-28T22:18:01.712Z,96833.80
2019-01-28T22:20:28.296Z,96837.67
2019-01-28T22:22:54.836Z,96841.16
2019-01-28T22:25:21.587Z,96840.28
2019-01-28T22:27:56.972Z,96847.60
2019-01-28T22:30:18.017Z,96853.23
2019-01-28T22:32:44.549Z,96854.94
2019-01-28T22:35:11.351Z,96853.28
2019-01-28T22:37:37.855Z,96869.20
2019-01-28T22:40:06.434Z,96873.94
2019-01-28T22:42:32.974Z,96885.19
2019-01-28T22:44:59.560Z,96886.87
2019-01-28T22:47:26.080Z,96886.47
2019-01-28T22:49:52.560Z,96889.91
2019-01-28T22:52:19.288Z,96896.41
2019-01-28T22:54:45.751Z,96898.13
2019-01-28T22:57:12.273Z,96904.56
2019-01-28T22:59:38.920Z,96904.17
2019-01-28T23:02:05.815Z,96908.53
2019-01-28T23:04:32.623Z,96904.19
2019-01-28T23:06:59.159Z,96906.80
2019-01-28T23:09:25.730Z,96913.66
2019-01-28T23:11:52.465Z,96923.55
2019-01-28T23:14:18.939Z,96923.97
2019-01-28T23:16:45.605Z,96932.56
2019-01-28T23:19:12.190Z,96928.31
2019-01-28T23:21:38.765Z,96929.16
2019-01-28T23:24:05.472Z,96937.78
2019-01-28T23:26:31.986Z,96942.07
2019-01-28T23:28:58.664Z,96932.14
2019-01-28T23:31:25.275Z,96938.66
2019-01-28T23:33:51.882Z,96947.28
2019-01-28T23:36:19.476Z,96952.94
2019-01-28T23:38:46.321Z,96959.42
2019-01-28T23:41:12.881Z,96962.95
2019-01-28T23:43:39.341Z,96965.55
2019-01-28T23:46:07.916Z,96969.45
2019-01-28T23:48:34.547Z,96969.95
2019-01-28T23:51:01.045Z,96980.70
2019-01-28T23:53:27.837Z,96985.84
2019-01-28T23:55:54.374Z,96974.30
2019-01-28T23:58:20.966Z,96987.22
